Time;durP1;ratioP1;P1;durP2;ratioP2;P2;SDS_P1;SDS_P2;PMS_P1;PMS_P2;Temp;Humidity;BMP_temperature;BMP_pressure;BME280_temperature;BME280_humidity;BME280_pressure;Samples;Min_cycle;Max_cycle;Signal;HPM_P1;HPM_P2
2022/12/09 00:00:05;;;;;;;16.45;8.65;;;2.40;94.20;;;;;;5070677;28;20034;-70
2022/12/09 00:02:31;;;;;;;19.08;10.70;;;2.30;94.30;;;;;;5070537;28;20032;-69
2022/12/09 00:04:57;;;;;;;20.13;10.35;;;2.30;94.50;;;;;;5065205;28;20039;-69
2022/12/09 00:07:23;;;;;;;21.63;10.43;;;2.30;94.10;;;;;;5072411;28;20117;-69
2022/12/09 00:09:48;;;;;;;16.98;9.57;;;2.20;94.10;;;;;;5070624;28;20078;-70
2022/12/09 00:12:14;;;;;;;17.02;8.38;;;2.20;94.30;;;;;;5077347;28;20071;-68
2022/12/09 00:14:40;;;;;;;13.57;8.05;;;2.20;94.40;;;;;;5069553;28;20043;-70
2022/12/09 00:17:06;;;;;;;19.73;9.07;;;2.10;94.50;;;;;;5069358;28;20032;-70
2022/12/09 00:19:33;;;;;;;20.08;9.73;;;2.10;94.70;;;;;;5073756;28;20035;-72
2022/12/09 00:21:59;;;;;;;18.75;10.00;;;2.10;94.80;;;;;;5067772;28;20040;-68
2022/12/09 00:24:24;;;;;;;17.48;8.90;;;2.20;94.90;;;;;;5065575;28;20041;-68
2022/12/09 00:26:50;;;;;;;15.15;8.32;;;2.20;94.90;;;;;;5072213;28;20028;-69
2022/12/09 00:29:16;;;;;;;15.57;8.48;;;2.20;95.00;;;;;;5069015;28;20046;-69
2022/12/09 00:31:42;;;;;;;17.00;7.60;;;2.20;95.10;;;;;;5076189;28;20028;-69
2022/12/09 00:34:12;;;;;;;16.60;9.43;;;2.20;95.20;;;;;;5067754;28;20036;-69
2022/12/09 00:36:38;;;;;;;18.17;8.52;;;2.20;95.30;;;;;;5072256;28;20555;-69
2022/12/09 00:39:04;;;;;;;17.38;8.80;;;2.20;95.10;;;;;;5069907;28;20534;-69
2022/12/09 00:41:30;;;;;;;15.50;8.05;;;2.10;94.90;;;;;;5066348;28;20742;-69
2022/12/09 00:43:56;;;;;;;17.35;9.65;;;2.10;95.00;;;;;;5065136;28;20030;-63
2022/12/09 00:46:22;;;;;;;21.40;10.00;;;2.10;95.10;;;;;;5074692;28;20032;-68
2022/12/09 00:48:48;;;;;;;15.23;8.55;;;2.10;95.10;;;;;;5070750;28;20109;-68
2022/12/09 00:51:17;;;;;;;17.95;9.05;;;2.00;95.10;;;;;;5074455;28;20182;-68
2022/12/09 00:53:43;;;;;;;18.08;10.75;;;2.00;95.60;;;;;;5075631;28;20380;-68
2022/12/09 00:56:10;;;;;;;19.85;9.75;;;2.00;95.20;;;;;;5068716;28;20344;-68
2022/12/09 00:58:36;;;;;;;15.98;8.13;;;2.10;94.90;;;;;;5070191;28;20941;-68
2022/12/09 01:01:02;;;;;;;17.38;9.48;;;2.10;94.80;;;;;;5065109;28;20036;-68
2022/12/09 01:03:27;;;;;;;21.80;9.82;;;2.10;94.90;;;;;;5066406;28;20028;-70
2022/12/09 01:05:54;;;;;;;17.77;9.80;;;2.10;94.90;;;;;;5071745;28;20033;-67
2022/12/09 01:08:20;;;;;;;18.90;9.10;;;2.10;95.00;;;;;;5069365;28;20409;-68
2022/12/09 01:10:46;;;;;;;19.20;9.25;;;2.00;95.10;;;;;;5072388;28;20028;-69
2022/12/09 01:13:13;;;;;;;17.10;8.98;;;2.10;95.40;;;;;;5068193;28;20130;-69
2022/12/09 01:15:39;;;;;;;16.48;8.77;;;2.10;95.10;;;;;;5072085;28;20032;-69
2022/12/09 01:18:06;;;;;;;19.30;8.68;;;2.10;95.20;;;;;;5067816;28;20544;-69
2022/12/09 01:20:33;;;;;;;17.20;8.90;;;2.10;95.30;;;;;;5062494;28;20024;-69
2022/12/09 01:22:59;;;;;;;15.25;8.73;;;2.10;95.50;;;;;;5071841;28;20119;-69
2022/12/09 01:25:25;;;;;;;14.80;7.45;;;2.20;95.50;;;;;;5067476;28;20036;-69
2022/12/09 01:27:51;;;;;;;15.25;8.35;;;2.20;95.70;;;;;;5079444;28;20031;-68
2022/12/09 01:30:17;;;;;;;14.82;7.82;;;2.20;95.80;;;;;;5072739;28;20032;-69
2022/12/09 01:32:42;;;;;;;15.18;7.63;;;2.30;95.80;;;;;;5075154;28;20756;-69
2022/12/09 01:35:08;;;;;;;14.05;7.47;;;2.30;96.00;;;;;;5076042;28;20037;-69
2022/12/09 01:37:35;;;;;;;17.48;9.80;;;2.40;96.30;;;;;;5067677;28;20035;-69
2022/12/09 01:40:05;;;;;;;16.98;8.48;;;2.40;95.80;;;;;;5064150;28;20094;-69
2022/12/09 01:42:32;;;;;;;15.57;8.65;;;2.40;95.70;;;;;;5073048;28;20028;-69
2022/12/09 01:45:29;;;;;;;15.20;8.00;;;2.50;95.80;;;;;;5067080;28;20434;-69
2022/12/09 01:48:04;;;;;;;15.07;7.15;;;2.50;95.70;;;;;;5074278;28;20056;-69
2022/12/09 01:50:31;;;;;;;15.43;8.25;;;2.50;95.70;;;;;;5070422;28;20039;-69
2022/12/09 01:52:57;;;;;;;14.23;7.57;;;2.50;95.60;;;;;;5070881;28;20635;-69
2022/12/09 01:55:24;;;;;;;17.23;8.30;;;2.50;95.50;;;;;;5069569;28;20036;-69
2022/12/09 01:57:51;;;;;;;18.85;8.95;;;2.50;95.50;;;;;;5063774;28;20094;-69
2022/12/09 02:00:18;;;;;;;16.45;8.38;;;2.40;95.50;;;;;;5067905;28;20558;-69
2022/12/09 02:02:46;;;;;;;17.38;9.52;;;2.40;95.30;;;;;;5070967;28;20024;-69
2022/12/09 02:05:14;;;;;;;17.52;8.60;;;2.40;95.40;;;;;;5068715;28;20048;-69
2022/12/09 02:07:45;;;;;;;16.42;7.82;;;2.50;95.50;;;;;;5055489;28;20028;-69
2022/12/09 02:10:15;;;;;;;14.05;7.13;;;2.50;95.50;;;;;;5067274;28;20853;-68
2022/12/09 02:13:13;;;;;;;15.73;7.93;;;2.50;95.50;;;;;;5074081;28;20165;-69
2022/12/09 02:15:54;;;;;;;15.10;8.52;;;2.60;95.50;;;;;;5064545;28;20116;-69
2022/12/09 02:18:41;;;;;;;17.98;9.13;;;2.60;95.40;;;;;;5065614;28;20024;-69
2022/12/09 02:21:16;;;;;;;14.63;7.93;;;2.60;95.50;;;;;;5070933;28;20032;-69
2022/12/09 02:23:52;;;;;;;14.93;8.02;;;2.60;95.60;;;;;;5075668;28;20107;-69
2022/12/09 02:26:34;;;;;;;13.57;7.15;;;2.60;95.50;;;;;;5072042;28;20040;-69
2022/12/09 02:29:30;;;;;;;13.60;7.28;;;2.60;95.60;;;;;;5073850;28;20393;-69
2022/12/09 02:32:34;;;;;;;13.23;7.38;;;2.60;95.80;;;;;;5069815;28;20032;-69
2022/12/09 02:35:06;;;;;;;15.20;7.28;;;2.60;95.90;;;;;;5064239;28;20484;-69
2022/12/09 02:37:41;;;;;;;15.13;8.18;;;2.60;95.80;;;;;;5064266;28;20024;-69
2022/12/09 02:40:13;;;;;;;13.68;7.05;;;2.60;95.80;;;;;;5067640;28;20028;-70
2022/12/09 02:42:44;;;;;;;10.95;6.05;;;2.70;95.60;;;;;;5075551;28;20131;-69
2022/12/09 02:45:13;;;;;;;12.27;6.50;;;2.70;95.60;;;;;;5067459;28;20028;-69
2022/12/09 02:47:47;;;;;;;12.02;6.88;;;2.70;95.80;;;;;;5065969;28;20061;-69
2022/12/09 02:50:17;;;;;;;15.48;7.85;;;2.70;95.90;;;;;;5070143;28;20060;-69
2022/12/09 02:52:45;;;;;;;17.88;9.60;;;2.70;95.90;;;;;;5058997;28;20035;-70
2022/12/09 02:55:14;;;;;;;40.03;15.02;;;2.70;95.80;;;;;;5061989;28;20064;-69
2022/12/09 02:57:40;;;;;;;29.55;12.93;;;2.70;95.60;;;;;;5070317;28;20026;-70
2022/12/09 03:00:11;;;;;;;20.15;9.93;;;2.70;95.60;;;;;;5067777;28;20035;-70
2022/12/09 03:02:42;;;;;;;18.30;8.93;;;2.70;95.60;;;;;;5076076;28;20457;-70
2022/12/09 03:05:24;;;;;;;16.02;8.27;;;2.80;95.60;;;;;;5064374;28;20638;-70
2022/12/09 03:08:05;;;;;;;14.25;7.53;;;2.70;95.60;;;;;;5070923;28;20052;-70
2022/12/09 03:11:01;;;;;;;15.48;7.82;;;2.80;95.70;;;;;;5070028;28;20839;-70
2022/12/09 03:13:45;;;;;;;16.13;8.05;;;2.80;95.70;;;;;;5064003;28;20036;-70
2022/12/09 03:16:40;;;;;;;19.10;8.80;;;2.80;95.70;;;;;;5064446;28;20042;-70
2022/12/09 03:19:16;;;;;;;17.17;7.88;;;2.80;95.80;;;;;;5067614;28;20062;-69
2022/12/09 03:21:46;;;;;;;15.60;8.13;;;2.80;95.90;;;;;;5070368;28;20062;-70
2022/12/09 03:24:16;;;;;;;14.60;7.13;;;2.80;96.00;;;;;;5066457;28;20877;-70
2022/12/09 03:26:42;;;;;;;16.58;8.13;;;2.80;96.10;;;;;;5067814;28;20743;-69
2022/12/09 03:29:17;;;;;;;17.92;7.80;;;2.80;96.00;;;;;;5071392;28;20028;-70
2022/12/09 03:31:44;;;;;;;16.85;7.97;;;2.90;96.10;;;;;;5063284;28;20032;-69
2022/12/09 03:34:14;;;;;;;15.07;8.10;;;2.90;96.00;;;;;;5062811;28;20071;-69
2022/12/09 03:36:41;;;;;;;16.90;7.32;;;2.90;95.90;;;;;;5068274;28;20170;-70
2022/12/09 03:39:13;;;;;;;13.77;7.25;;;2.90;95.80;;;;;;5070318;28;20040;-69
2022/12/09 03:41:48;;;;;;;16.15;7.80;;;2.90;95.80;;;;;;5066930;28;20036;-70
2022/12/09 03:44:47;;;;;;;15.88;8.07;;;2.90;95.80;;;;;;5067839;28;20035;-70
2022/12/09 03:47:13;;;;;;;15.15;7.97;;;2.90;95.80;;;;;;5069096;28;20503;-70
2022/12/09 03:49:39;;;;;;;14.85;7.68;;;2.90;95.80;;;;;;5069679;28;20024;-70
2022/12/09 03:52:17;;;;;;;12.50;6.72;;;2.90;95.80;;;;;;5065522;28;20029;-70
2022/12/09 03:54:46;;;;;;;13.70;7.40;;;2.90;96.00;;;;;;5073107;28;20063;-70
2022/12/09 03:57:14;;;;;;;15.10;7.60;;;2.90;96.00;;;;;;5072195;28;20472;-69
2022/12/09 03:59:41;;;;;;;14.80;7.93;;;3.00;96.10;;;;;;5074356;28;20509;-70
2022/12/09 04:02:07;;;;;;;15.65;8.02;;;3.00;96.10;;;;;;5070654;28;20396;-70
2022/12/09 04:04:33;;;;;;;14.02;7.80;;;3.00;96.10;;;;;;5071107;28;20039;-69
2022/12/09 04:06:59;;;;;;;17.55;9.45;;;3.00;96.10;;;;;;5073781;28;20475;-70
2022/12/09 04:09:25;;;;;;;16.27;8.60;;;3.10;95.80;;;;;;5068771;28;20127;-69
2022/12/09 04:11:51;;;;;;;15.20;7.85;;;3.10;95.90;;;;;;5065867;28;20043;-70
2022/12/09 04:14:17;;;;;;;15.57;8.27;;;3.10;96.00;;;;;;5074555;28;20067;-69
2022/12/09 04:16:43;;;;;;;13.02;7.30;;;3.00;96.10;;;;;;5071320;28;20872;-70
2022/12/09 04:19:09;;;;;;;15.40;8.02;;;3.00;96.10;;;;;;5076270;28;20572;-69
2022/12/09 04:21:35;;;;;;;14.75;7.47;;;3.00;96.10;;;;;;5071632;28;20052;-69
2022/12/09 04:24:01;;;;;;;13.00;7.43;;;3.10;96.10;;;;;;5072636;28;20024;-70
2022/12/09 04:26:26;;;;;;;12.35;7.35;;;3.10;96.10;;;;;;5076287;28;20438;-70
2022/12/09 04:28:52;;;;;;;14.88;8.68;;;3.10;96.20;;;;;;5065673;28;20024;-70
2022/12/09 04:31:18;;;;;;;15.10;7.28;;;3.10;96.20;;;;;;5065112;28;20042;-69
2022/12/09 04:33:45;;;;;;;14.45;8.13;;;3.10;96.20;;;;;;5072669;28;20040;-70
2022/12/09 04:36:20;;;;;;;15.18;7.78;;;3.10;96.20;;;;;;5076103;28;20131;-69
2022/12/09 04:38:47;;;;;;;16.42;8.32;;;3.10;96.30;;;;;;5071934;28;20081;-70
2022/12/09 04:41:13;;;;;;;16.00;8.63;;;3.10;96.30;;;;;;5069828;28;20059;-70
2022/12/09 04:43:39;;;;;;;16.15;8.50;;;3.10;96.20;;;;;;5072484;28;20089;-70
2022/12/09 04:46:09;;;;;;;16.92;8.60;;;3.20;96.20;;;;;;5068051;28;20040;-70
2022/12/09 04:48:36;;;;;;;16.90;8.57;;;3.20;96.10;;;;;;5064008;28;20146;-70
2022/12/09 04:51:02;;;;;;;19.13;8.98;;;3.20;96.00;;;;;;5074787;28;20039;-70
2022/12/09 04:53:28;;;;;;;17.88;9.88;;;3.20;96.00;;;;;;5072749;28;20039;-69
2022/12/09 04:56:03;;;;;;;17.75;9.20;;;3.20;96.10;;;;;;5078873;28;20073;-70
2022/12/09 04:58:29;;;;;;;15.68;8.10;;;3.20;96.00;;;;;;5073268;28;20028;-69
2022/12/09 05:00:55;;;;;;;15.23;8.35;;;3.20;95.90;;;;;;5071263;28;20849;-69
2022/12/09 05:03:21;;;;;;;15.88;8.07;;;3.20;95.80;;;;;;5073931;28;20496;-69
2022/12/09 05:05:47;;;;;;;18.30;8.85;;;3.20;95.80;;;;;;5069594;28;20039;-69
2022/12/09 05:08:13;;;;;;;16.33;9.00;;;3.20;95.80;;;;;;5069360;28;20023;-69
2022/12/09 05:10:39;;;;;;;16.52;8.95;;;3.20;95.80;;;;;;5070469;28;20840;-69
2022/12/09 05:13:05;;;;;;;13.85;7.95;;;3.10;95.90;;;;;;5077751;28;20101;-69
2022/12/09 05:15:31;;;;;;;18.15;9.50;;;3.20;95.90;;;;;;5078782;28;20039;-69
2022/12/09 05:17:58;;;;;;;17.52;8.88;;;3.20;95.70;;;;;;5068339;28;20032;-69
2022/12/09 05:20:28;;;;;;;17.35;8.85;;;3.20;95.70;;;;;;5069254;28;20035;-69
2022/12/09 05:22:55;;;;;;;14.57;7.53;;;3.20;95.70;;;;;;5070395;28;20491;-69
2022/12/09 05:25:21;;;;;;;15.85;8.73;;;3.20;95.70;;;;;;5065212;28;20147;-69
2022/12/09 05:27:47;;;;;;;14.20;7.60;;;3.20;95.60;;;;;;5067705;28;20028;-69
2022/12/09 05:30:13;;;;;;;18.67;9.73;;;3.20;95.80;;;;;;5067218;28;20058;-70
2022/12/09 05:32:39;;;;;;;16.27;8.02;;;3.20;95.80;;;;;;5072376;28;20629;-69
2022/12/09 05:35:05;;;;;;;14.70;8.05;;;3.20;95.60;;;;;;5073495;28;20067;-69
2022/12/09 05:37:31;;;;;;;17.88;9.02;;;3.20;95.70;;;;;;5070018;28;20024;-70
2022/12/09 05:39:57;;;;;;;17.58;8.25;;;3.20;95.70;;;;;;5069351;28;20020;-69
2022/12/09 05:42:22;;;;;;;16.70;8.55;;;3.20;95.70;;;;;;5070807;28;20117;-69
2022/12/09 05:44:48;;;;;;;18.23;9.35;;;3.20;95.80;;;;;;5063563;28;20115;-70
2022/12/09 05:47:14;;;;;;;20.95;9.75;;;3.20;95.80;;;;;;5069556;28;20043;-70
2022/12/09 05:49:40;;;;;;;17.70;8.48;;;3.20;96.00;;;;;;5070984;28;20087;-70
2022/12/09 05:52:06;;;;;;;15.18;7.82;;;3.20;95.60;;;;;;5075243;28;20318;-69
2022/12/09 05:54:31;;;;;;;16.77;8.70;;;3.20;95.70;;;;;;5072812;28;20040;-70
2022/12/09 05:56:59;;;;;;;17.17;9.10;;;3.20;95.70;;;;;;5068142;28;20035;-70
2022/12/09 05:59:25;;;;;;;17.13;8.55;;;3.20;95.70;;;;;;5071318;28;20539;-69
2022/12/09 06:01:52;;;;;;;14.68;7.97;;;3.20;95.70;;;;;;5067506;28;20024;-70
2022/12/09 06:04:18;;;;;;;14.40;7.97;;;3.20;95.70;;;;;;5062703;28;20128;-70
2022/12/09 06:06:44;;;;;;;17.95;8.80;;;3.20;95.80;;;;;;5073630;28;20402;-70
2022/12/09 06:09:10;;;;;;;18.50;9.35;;;3.20;95.60;;;;;;5068906;28;20026;-69
2022/12/09 06:11:37;;;;;;;18.88;9.40;;;3.30;95.60;;;;;;5062959;28;20829;-70
2022/12/09 06:14:05;;;;;;;16.00;8.02;;;3.30;95.40;;;;;;5065875;28;20108;-70
2022/12/09 06:16:31;;;;;;;17.40;8.27;;;3.30;95.40;;;;;;5065245;28;20043;-70
2022/12/09 06:18:57;;;;;;;21.30;9.95;;;3.30;95.50;;;;;;5066174;28;20404;-70
2022/12/09 06:21:23;;;;;;;20.48;10.00;;;3.30;95.20;;;;;;5067170;28;20585;-70
2022/12/09 06:23:49;;;;;;;28.30;10.00;;;3.30;95.00;;;;;;5060755;28;20050;-70
2022/12/09 06:26:25;;;;;;;19.50;9.68;;;3.30;95.00;;;;;;5065754;28;20032;-70
2022/12/09 06:28:51;;;;;;;20.83;9.65;;;3.20;95.10;;;;;;5068334;28;20035;-69
2022/12/09 06:31:18;;;;;;;24.10;10.32;;;3.10;95.60;;;;;;5068089;28;20032;-70
2022/12/09 06:33:44;;;;;;;36.58;9.60;;;3.00;95.70;;;;;;5070184;28;20068;-70
2022/12/09 06:36:10;;;;;;;32.63;9.82;;;3.00;95.70;;;;;;5065474;28;20123;-70
2022/12/09 06:38:36;;;;;;;19.80;9.18;;;3.00;95.80;;;;;;5069643;28;20032;-70
2022/12/09 06:41:09;;;;;;;57.13;10.15;;;3.00;95.60;;;;;;5069744;28;20040;-70
2022/12/09 06:43:36;;;;;;;27.42;9.85;;;2.90;95.90;;;;;;5065195;28;20029;-70
2022/12/09 06:46:02;;;;;;;15.55;7.70;;;2.90;96.00;;;;;;5068368;28;20040;-70
2022/12/09 06:48:28;;;;;;;40.05;9.98;;;2.90;96.10;;;;;;5071350;28;20036;-70
2022/12/09 06:50:53;;;;;;;22.75;8.75;;;2.90;96.10;;;;;;5066319;28;20218;-70
2022/12/09 06:53:19;;;;;;;17.20;8.20;;;2.80;96.00;;;;;;5064645;28;20044;-70
2022/12/09 06:55:45;;;;;;;19.30;9.32;;;2.70;95.80;;;;;;5065502;28;20032;-70
2022/12/09 06:58:11;;;;;;;25.17;8.73;;;2.70;96.40;;;;;;5064000;28;20051;-70
2022/12/09 07:00:38;;;;;;;20.65;8.63;;;2.80;96.70;;;;;;5064092;28;20094;-70
2022/12/09 07:03:04;;;;;;;23.50;8.77;;;2.80;96.40;;;;;;5064021;28;20107;-70
2022/12/09 07:05:31;;;;;;;15.75;8.13;;;2.90;96.40;;;;;;5063775;28;20104;-70
2022/12/09 07:07:56;;;;;;;38.15;9.48;;;2.90;96.30;;;;;;5068409;28;20037;-70
2022/12/09 07:10:22;;;;;;;19.33;8.63;;;2.90;96.30;;;;;;5062915;28;20032;-70
2022/12/09 07:12:48;;;;;;;58.95;9.75;;;2.90;96.20;;;;;;5066313;28;20028;-70
2022/12/09 07:15:14;;;;;;;33.83;8.70;;;2.90;96.10;;;;;;5067260;28;20516;-70
2022/12/09 07:17:39;;;;;;;18.20;7.80;;;2.90;96.10;;;;;;5066540;28;20765;-70
2022/12/09 07:20:06;;;;;;;13.40;7.22;;;2.80;96.10;;;;;;5074086;28;20058;-70
2022/12/09 07:22:32;;;;;;;14.63;7.22;;;2.80;96.00;;;;;;5068680;28;20484;-70
2022/12/09 07:24:58;;;;;;;13.98;7.43;;;2.80;96.10;;;;;;5067682;28;20495;-70
2022/12/09 07:27:24;;;;;;;14.80;6.75;;;2.90;96.20;;;;;;5071525;28;20086;-70
2022/12/09 07:29:50;;;;;;;14.55;7.43;;;2.80;95.90;;;;;;5078240;28;20035;-71
2022/12/09 07:32:15;;;;;;;13.77;7.18;;;2.80;96.00;;;;;;5070393;28;20102;-69
2022/12/09 07:34:41;;;;;;;13.55;6.80;;;2.90;96.10;;;;;;5064822;28;20046;-68
2022/12/09 07:37:07;;;;;;;15.25;7.55;;;2.90;96.00;;;;;;5067742;28;20051;-64
2022/12/09 07:39:33;;;;;;;14.55;7.28;;;2.90;95.80;;;;;;5066846;28;20531;-68
2022/12/09 07:41:59;;;;;;;33.42;13.77;;;2.90;95.90;;;;;;5067433;28;20052;-68
2022/12/09 07:44:28;;;;;;;17.45;8.00;;;2.90;95.80;;;;;;5067067;28;20488;-68
2022/12/09 07:46:55;;;;;;;23.40;7.82;;;3.00;95.60;;;;;;5072265;28;20024;-70
2022/12/09 07:49:22;;;;;;;14.77;7.70;;;3.00;95.50;;;;;;5070440;28;20039;-70
2022/12/09 07:51:48;;;;;;;26.25;7.40;;;3.00;95.60;;;;;;5071325;28;20070;-67
2022/12/09 07:54:16;;;;;;;14.40;6.80;;;2.90;95.40;;;;;;5068564;28;20048;-65
2022/12/09 07:56:42;;;;;;;14.05;6.07;;;2.80;95.50;;;;;;5066516;28;20063;-68
2022/12/09 07:59:11;;;;;;;27.42;7.70;;;2.80;95.70;;;;;;5067576;28;20847;-73
2022/12/09 08:01:38;;;;;;;14.77;6.85;;;2.90;95.70;;;;;;5067080;28;20519;-69
2022/12/09 08:04:06;;;;;;;12.95;6.25;;;2.90;96.00;;;;;;5069167;28;20033;-68
2022/12/09 08:06:33;;;;;;;15.90;6.28;;;2.80;95.60;;;;;;5068485;28;20024;-69
2022/12/09 08:09:05;;;;;;;73.13;8.55;;;2.80;95.60;;;;;;5068515;28;20755;-70
2022/12/09 08:11:32;;;;;;;10.27;5.35;;;2.90;95.40;;;;;;5067719;28;20032;-68
2022/12/09 08:14:00;;;;;;;13.73;6.80;;;2.90;95.20;;;;;;5066697;28;20040;-68
2022/12/09 08:16:26;;;;;;;14.85;7.57;;;2.90;95.40;;;;;;5073166;28;20036;-68
2022/12/09 08:18:53;;;;;;;14.98;6.97;;;2.90;95.30;;;;;;5072334;28;20024;-69
2022/12/09 08:21:25;;;;;;;16.67;7.60;;;2.90;95.20;;;;;;5064768;28;20067;-68
2022/12/09 08:23:51;;;;;;;22.27;8.57;;;2.90;95.70;;;;;;5070217;28;20119;-71
2022/12/09 08:26:20;;;;;;;14.05;7.65;;;2.90;95.40;;;;;;5077547;28;20020;-68
2022/12/09 08:28:46;;;;;;;19.95;7.90;;;2.90;95.50;;;;;;5071254;28;20035;-70
2022/12/09 08:31:18;;;;;;;14.27;8.18;;;3.00;95.50;;;;;;5066586;28;20112;-67
2022/12/09 08:33:44;;;;;;;12.82;7.47;;;3.00;95.50;;;;;;5067906;28;20047;-69
2022/12/09 08:36:28;;;;;;;14.38;7.25;;;3.00;95.50;;;;;;5068551;28;20037;-68
2022/12/09 08:38:54;;;;;;;15.07;7.05;;;3.00;95.40;;;;;;5068983;28;20027;-68
2022/12/09 08:41:33;;;;;;;15.52;7.28;;;3.10;95.70;;;;;;5069472;28;20032;-68
2022/12/09 08:44:18;;;;;;;11.88;5.80;;;3.10;95.20;;;;;;5062986;28;20400;-67
2022/12/09 08:46:50;;;;;;;12.73;6.13;;;3.00;94.90;;;;;;5068926;28;20044;-69
2022/12/09 08:49:18;;;;;;;16.77;6.78;;;3.00;94.90;;;;;;5070018;28;20974;-67
2022/12/09 08:51:45;;;;;;;15.18;7.82;;;2.90;95.00;;;;;;5068789;28;20040;-70
2022/12/09 08:54:11;;;;;;;26.02;9.98;;;2.90;94.80;;;;;;5071401;28;20040;-68
2022/12/09 08:56:36;;;;;;;15.93;7.28;;;3.00;95.00;;;;;;5066633;28;20093;-68
2022/12/09 08:59:03;;;;;;;12.63;6.32;;;3.00;94.80;;;;;;5071336;28;20028;-68
2022/12/09 09:01:36;;;;;;;13.48;6.72;;;3.00;94.80;;;;;;5066659;28;20506;-64
2022/12/09 09:04:11;;;;;;;22.05;7.22;;;3.00;95.00;;;;;;5071659;28;20036;-68
2022/12/09 09:06:39;;;;;;;13.43;6.30;;;3.10;95.10;;;;;;5070026;28;20696;-67
2022/12/09 09:09:07;;;;;;;11.13;6.15;;;3.10;94.90;;;;;;5067760;28;20457;-67
2022/12/09 09:11:33;;;;;;;12.98;6.65;;;3.10;95.10;;;;;;5068323;28;20083;-72
2022/12/09 09:14:01;;;;;;;15.40;6.97;;;3.20;95.30;;;;;;5065793;28;20028;-67
2022/12/09 09:16:27;;;;;;;23.60;8.25;;;3.20;95.30;;;;;;5066142;28;20032;-70
2022/12/09 09:18:53;;;;;;;16.25;7.78;;;3.30;95.10;;;;;;5067985;28;20035;-70
2022/12/09 09:21:21;;;;;;;13.05;6.93;;;3.40;95.00;;;;;;5068931;28;20035;-66
2022/12/09 09:23:47;;;;;;;15.88;6.75;;;3.40;94.80;;;;;;5073335;28;20466;-74
2022/12/09 09:26:18;;;;;;;14.05;6.70;;;3.40;94.80;;;;;;5069249;28;20086;-74
2022/12/09 09:28:44;;;;;;;15.27;6.15;;;3.40;94.90;;;;;;5068673;28;20036;-69
2022/12/09 09:31:12;;;;;;;16.92;6.18;;;3.40;95.00;;;;;;5066950;28;20052;-62
2022/12/09 09:33:39;;;;;;;11.95;5.60;;;3.40;94.90;;;;;;5062007;28;20149;-63
2022/12/09 09:36:07;;;;;;;17.08;6.97;;;3.40;94.80;;;;;;5070944;28;20491;-66
2022/12/09 09:38:32;;;;;;;15.98;7.55;;;3.40;94.80;;;;;;5070917;28;20040;-63
2022/12/09 09:41:00;;;;;;;13.27;6.30;;;3.50;94.70;;;;;;5065123;28;20509;-66
2022/12/09 09:43:32;;;;;;;12.15;5.93;;;3.60;94.00;;;;;;5071051;28;20052;-74
2022/12/09 09:45:58;;;;;;;10.25;5.65;;;3.60;94.10;;;;;;5066914;28;20535;-69
2022/12/09 09:48:32;;;;;;;15.40;6.63;;;3.60;94.30;;;;;;5066045;28;20039;-66
2022/12/09 09:51:17;;;;;;;12.70;6.28;;;3.60;94.40;;;;;;5073054;28;20024;-73
2022/12/09 09:53:44;;;;;;;14.75;6.13;;;3.70;94.30;;;;;;5063851;28;20032;-69
2022/12/09 09:56:25;;;;;;;15.40;7.43;;;3.70;94.30;;;;;;5068772;28;20498;-73
2022/12/09 09:59:26;;;;;;;16.02;7.32;;;3.70;94.30;;;;;;5065775;28;20032;-70
2022/12/09 10:02:17;;;;;;;16.55;7.32;;;3.70;94.40;;;;;;5068847;28;20028;-70
2022/12/09 10:04:52;;;;;;;15.65;7.57;;;3.70;94.40;;;;;;5070336;28;20032;-70
2022/12/09 10:07:39;;;;;;;18.15;8.00;;;3.70;94.30;;;;;;5068386;28;20036;-74
2022/12/09 10:10:05;;;;;;;13.50;6.65;;;3.80;94.10;;;;;;5072883;28;20062;-66
2022/12/09 10:13:01;;;;;;;13.48;6.45;;;3.90;93.70;;;;;;5068596;28;20028;-65
2022/12/09 10:15:30;;;;;;;17.05;7.78;;;3.90;93.20;;;;;;5066478;28;20031;-69
2022/12/09 10:18:30;;;;;;;13.40;5.55;;;3.90;93.60;;;;;;5071712;28;20028;-70
2022/12/09 10:20:56;;;;;;;14.57;6.10;;;4.00;93.40;;;;;;5064703;28;20554;-73
2022/12/09 10:23:22;;;;;;;17.00;7.07;;;4.00;93.20;;;;;;5071692;28;20032;-72
2022/12/09 10:25:58;;;;;;;13.05;6.43;;;4.00;93.00;;;;;;5069112;28;20412;-69
2022/12/09 10:28:35;;;;;;;12.88;7.03;;;4.00;93.30;;;;;;5061516;28;20827;-76
2022/12/09 10:31:01;;;;;;;11.30;6.28;;;4.00;93.20;;;;;;5071786;28;20051;-75
2022/12/09 10:33:35;;;;;;;11.27;6.38;;;4.10;93.10;;;;;;5069512;28;22072;-72
2022/12/09 10:36:04;;;;;;;12.07;6.20;;;4.10;92.50;;;;;;5068870;28;20698;-75
2022/12/09 10:38:31;;;;;;;13.52;6.40;;;4.10;93.00;;;;;;5067254;28;20024;-73
2022/12/09 10:44:24;;;;;;;11.18;5.85;;;3.90;93.00;;;;;;5066270;28;20040;-71
2022/12/09 10:47:24;;;;;;;11.65;5.90;;;3.90;92.20;;;;;;5061225;28;20351;-71
2022/12/09 10:49:51;;;;;;;11.23;5.72;;;3.90;92.40;;;;;;5066958;28;20032;-69
2022/12/09 10:52:27;;;;;;;11.55;5.32;;;3.80;92.60;;;;;;5065931;28;20035;-70
2022/12/09 10:54:54;;;;;;;9.30;5.53;;;3.80;92.80;;;;;;5063829;28;20063;-69
2022/12/09 10:57:28;;;;;;;11.55;5.85;;;3.70;92.70;;;;;;5062186;28;20642;-67
2022/12/09 11:00:07;;;;;;;7.93;4.70;;;3.70;92.70;;;;;;5065614;28;20492;-67
2022/12/09 11:02:33;;;;;;;9.52;5.65;;;3.70;92.20;;;;;;5066740;28;20024;-67
2022/12/09 11:05:23;;;;;;;14.10;6.50;;;3.70;92.60;;;;;;5069166;28;20040;-67
2022/12/09 11:07:51;;;;;;;11.48;6.28;;;3.70;92.70;;;;;;5061569;28;20119;-66
2022/12/09 11:10:22;;;;;;;9.57;5.63;;;3.70;92.60;;;;;;5066878;28;20047;-71
2022/12/09 11:13:02;;;;;;;8.80;5.20;;;3.70;92.70;;;;;;5066592;28;20029;-67
2022/12/09 11:15:40;;;;;;;16.55;5.85;;;3.70;92.60;;;;;;5065672;28;20036;-66
2022/12/09 11:18:29;;;;;;;13.18;5.95;;;3.70;92.60;;;;;;5078800;28;20028;-70
2022/12/09 11:21:01;;;;;;;11.07;6.20;;;3.80;92.20;;;;;;5063196;28;20039;-67
2022/12/09 11:23:28;;;;;;;9.88;5.75;;;3.70;92.10;;;;;;5065484;28;20127;-68
2022/12/09 11:25:59;;;;;;;10.50;6.13;;;3.70;92.50;;;;;;5061659;28;20631;-68
2022/12/09 11:28:30;;;;;;;14.27;6.25;;;3.70;92.80;;;;;;5066703;28;20124;-66
2022/12/09 11:31:06;;;;;;;11.02;6.07;;;3.60;93.10;;;;;;5069113;28;20040;-68
2022/12/09 11:33:48;;;;;;;11.93;6.57;;;3.60;93.10;;;;;;5069677;28;20155;-66
2022/12/09 11:36:25;;;;;;;14.68;6.72;;;3.70;93.20;;;;;;5066493;28;20040;-65
2022/12/09 11:38:53;;;;;;;12.18;7.00;;;3.70;93.00;;;;;;5062624;28;20197;-65
2022/12/09 11:44:14;;;;;;;;;;;3.70;92.90;;;;;;5059159;28;20859;-67
2022/12/09 11:46:40;;;;;;;14.23;7.18;;;3.70;92.50;;;;;;5068737;28;20391;-66
2022/12/09 11:49:15;;;;;;;12.63;6.75;;;3.70;92.60;;;;;;5066594;28;20037;-67
2022/12/09 11:52:20;;;;;;;13.68;6.50;;;3.60;92.40;;;;;;5063067;28;20089;-67
2022/12/09 11:54:53;;;;;;;12.68;7.35;;;3.50;92.50;;;;;;5060729;28;20492;-67
2022/12/09 11:57:40;;;;;;;11.88;6.30;;;3.50;92.40;;;;;;5066414;28;20043;-67
2022/12/09 12:00:20;;;;;;;12.68;6.70;;;3.40;92.20;;;;;;5078640;28;20694;-67
2022/12/09 12:02:55;;;;;;;17.05;7.60;;;3.50;92.50;;;;;;5068865;28;20021;-67
2022/12/09 12:05:38;;;;;;;14.32;6.97;;;3.50;92.40;;;;;;5065080;28;20848;-67
2022/12/09 12:08:06;;;;;;;12.88;6.38;;;3.60;92.30;;;;;;5063473;28;20136;-67
2022/12/09 12:10:43;;;;;;;21.45;8.40;;;3.60;92.30;;;;;;5067297;28;20038;-67
2022/12/09 12:13:25;;;;;;;14.23;7.53;;;3.60;92.50;;;;;;5070462;28;20109;-67
2022/12/09 12:16:11;;;;;;;15.48;8.68;;;3.60;92.40;;;;;;5073160;28;20035;-68
2022/12/09 12:19:15;;;;;;;15.17;7.77;;;3.60;92.50;;;;;;5070942;28;20032;-68
2022/12/09 12:21:53;;;;;;;17.70;7.55;;;3.60;92.80;;;;;;5068189;28;20277;-68
2022/12/09 12:24:53;;;;;;;15.75;8.07;;;3.60;92.80;;;;;;5068674;28;20036;-69
2022/12/09 12:27:36;;;;;;;13.50;7.45;;;3.60;92.90;;;;;;5072400;28;20036;-69
2022/12/09 12:32:19;;;;;;;15.40;7.85;;;3.50;92.70;;;;;;5018514;28;20414;-69
2022/12/09 12:35:06;;;;;;;14.82;7.32;;;3.40;92.30;;;;;;5008592;28;20106;-67
2022/12/09 12:38:01;;;;;;;13.15;7.43;;;3.40;92.30;;;;;;5001357;28;20049;-70
2022/12/09 12:40:56;;;;;;;16.63;7.60;;;3.40;92.70;;;;;;4992631;28;20050;-68
2022/12/09 12:46:26;;;;;;;15.60;7.45;;;3.40;92.60;;;;;;5005213;28;20034;-67
2022/12/09 12:49:04;;;;;;;12.50;7.32;;;3.40;92.70;;;;;;5001711;28;20478;-69
2022/12/09 12:51:51;;;;;;;16.13;7.50;;;3.40;92.50;;;;;;4997674;28;20057;-73
2022/12/09 12:54:25;;;;;;;13.80;7.10;;;3.30;92.90;;;;;;5007939;28;20141;-69
2022/12/09 12:57:03;;;;;;;17.75;8.65;;;3.40;93.20;;;;;;5003586;28;20060;-68
2022/12/09 13:00:00;;;;;;;22.88;10.80;;;3.50;93.20;;;;;;5005286;28;20119;-68
2022/12/09 13:02:46;;;;;;;14.80;6.97;;;3.50;93.30;;;;;;5002683;28;20049;-68
2022/12/09 13:05:24;;;;;;;16.17;8.18;;;3.50;93.20;;;;;;5007802;28;20033;-68
2022/12/09 13:08:20;;;;;;;14.55;7.60;;;3.60;93.40;;;;;;5007210;28;20044;-68
2022/12/09 13:10:49;;;;;;;14.48;8.30;;;3.70;93.60;;;;;;5003937;28;20061;-68
2022/12/09 13:13:31;;;;;;;14.68;7.53;;;3.70;93.00;;;;;;5004276;28;20755;-68
2022/12/09 13:16:05;;;;;;;15.70;8.00;;;3.70;92.90;;;;;;5002423;28;20030;-67
2022/12/09 13:18:37;;;;;;;15.35;7.80;;;3.60;92.90;;;;;;5002832;28;20029;-68